Urb Monte Brisas 2, Puerto Rico
Current Conditions -  °F | °C
As of 2:53 PM on Sunday 21 Dec 2014 (Local Time) from TJNR Reporting Station
Clear Clear  
Wind Chill: 82°   Ceiling: Unl
Heat Index: 84°   Visibility: 10mi
Dew Point: 67°   Wind: 12mph
Humidity: 60%   Direction: 60°ENE
Pressure: 30.05"   Gusts: NA
Location:  18.3304°N, 65.6573°W
Report Text: TJNR 211853Z AUTO 06010KT 10SM CLR 28/19 A3005 RMK AO2 SLP176 T02780194 $
Loading
Personal Weather Stations






























Interactive Weather Map New forecast layout! Learn more

10-Day Weather Forecast

Advertisements
Track Severe Weather on mobile